sensor_id;sensor_type;location;lat;lon;timestamp;P1;durP1;ratioP1;P2;durP2;ratioP2
18190;SDS011;47004;51.366;12.348;2023-02-01T00:01:39;9.73;;;4.57;;
18190;SDS011;47004;51.366;12.348;2023-02-01T00:03:41;16.63;;;4.80;;
18190;SDS011;47004;51.366;12.348;2023-02-01T00:05:43;10.60;;;4.23;;
18190;SDS011;47004;51.366;12.348;2023-02-01T00:07:46;15.50;;;4.47;;
18190;SDS011;47004;51.366;12.348;2023-02-01T00:09:49;12.77;;;4.40;;
18190;SDS011;47004;51.366;12.348;2023-02-01T00:11:51;10.60;;;3.70;;
18190;SDS011;47004;51.366;12.348;2023-02-01T00:13:52;13.83;;;4.33;;
18190;SDS011;47004;51.366;12.348;2023-02-01T00:15:54;12.80;;;3.83;;
18190;SDS011;47004;51.366;12.348;2023-02-01T00:18:04;15.87;;;4.03;;
18190;SDS011;47004;51.366;12.348;2023-02-01T00:20:06;11.70;;;3.43;;
18190;SDS011;47004;51.366;12.348;2023-02-01T00:22:10;13.17;;;3.63;;
18190;SDS011;47004;51.366;12.348;2023-02-01T00:24:14;13.90;;;2.90;;
18190;SDS011;47004;51.366;12.348;2023-02-01T00:26:17;8.37;;;2.73;;
18190;SDS011;47004;51.366;12.348;2023-02-01T00:28:20;13.97;;;3.43;;
18190;SDS011;47004;51.366;12.348;2023-02-01T00:30:22;14.33;;;3.67;;
18190;SDS011;47004;51.366;12.348;2023-02-01T00:32:24;11.30;;;3.10;;
18190;SDS011;47004;51.366;12.348;2023-02-01T00:34:27;15.00;;;2.93;;
18190;SDS011;47004;51.366;12.348;2023-02-01T00:36:29;9.83;;;2.93;;
18190;SDS011;47004;51.366;12.348;2023-02-01T00:38:32;15.33;;;3.50;;
18190;SDS011;47004;51.366;12.348;2023-02-01T00:40:34;11.60;;;2.97;;
18190;SDS011;47004;51.366;12.348;2023-02-01T00:42:36;15.63;;;3.47;;
18190;SDS011;47004;51.366;12.348;2023-02-01T00:44:38;9.97;;;2.57;;
18190;SDS011;47004;51.366;12.348;2023-02-01T00:46:40;15.77;;;3.20;;
18190;SDS011;47004;51.366;12.348;2023-02-01T00:48:42;10.30;;;2.77;;
18190;SDS011;47004;51.366;12.348;2023-02-01T00:50:46;11.63;;;2.90;;
18190;SDS011;47004;51.366;12.348;2023-02-01T00:52:48;10.77;;;2.90;;
18190;SDS011;47004;51.366;12.348;2023-02-01T00:54:50;10.17;;;2.77;;
18190;SDS011;47004;51.366;12.348;2023-02-01T00:56:52;12.23;;;2.60;;
18190;SDS011;47004;51.366;12.348;2023-02-01T00:58:53;18.67;;;3.13;;
18190;SDS011;47004;51.366;12.348;2023-02-01T01:01:03;16.37;;;2.80;;
18190;SDS011;47004;51.366;12.348;2023-02-01T01:03:07;10.83;;;2.50;;
18190;SDS011;47004;51.366;12.348;2023-02-01T01:05:21;13.30;;;2.80;;
18190;SDS011;47004;51.366;12.348;2023-02-01T01:07:24;11.93;;;2.93;;
18190;SDS011;47004;51.366;12.348;2023-02-01T01:09:26;12.47;;;2.43;;
18190;SDS011;47004;51.366;12.348;2023-02-01T01:11:29;12.27;;;2.50;;
18190;SDS011;47004;51.366;12.348;2023-02-01T01:13:32;17.83;;;2.70;;
18190;SDS011;47004;51.366;12.348;2023-02-01T01:15:35;14.67;;;3.17;;
18190;SDS011;47004;51.366;12.348;2023-02-01T01:17:37;12.13;;;2.43;;
18190;SDS011;47004;51.366;12.348;2023-02-01T01:19:39;9.73;;;3.53;;
18190;SDS011;47004;51.366;12.348;2023-02-01T01:21:41;11.20;;;2.50;;
18190;SDS011;47004;51.366;12.348;2023-02-01T01:23:45;7.47;;;2.27;;
18190;SDS011;47004;51.366;12.348;2023-02-01T01:25:47;12.37;;;2.70;;
18190;SDS011;47004;51.366;12.348;2023-02-01T01:27:49;19.03;;;3.83;;
18190;SDS011;47004;51.366;12.348;2023-02-01T01:29:51;12.37;;;2.97;;
18190;SDS011;47004;51.366;12.348;2023-02-01T01:31:53;12.27;;;3.13;;
18190;SDS011;47004;51.366;12.348;2023-02-01T01:33:56;8.83;;;3.30;;
18190;SDS011;47004;51.366;12.348;2023-02-01T01:36:04;12.60;;;3.33;;
18190;SDS011;47004;51.366;12.348;2023-02-01T01:38:06;14.43;;;3.50;;
18190;SDS011;47004;51.366;12.348;2023-02-01T01:40:10;11.57;;;4.27;;
18190;SDS011;47004;51.366;12.348;2023-02-01T01:42:13;13.10;;;3.43;;
18190;SDS011;47004;51.366;12.348;2023-02-01T01:46:54;10.87;;;3.10;;
18190;SDS011;47004;51.366;12.348;2023-02-01T01:48:58;11.83;;;3.47;;
18190;SDS011;47004;51.366;12.348;2023-02-01T01:51:06;10.43;;;3.73;;
18190;SDS011;47004;51.366;12.348;2023-02-01T01:53:12;17.40;;;3.50;;
18190;SDS011;47004;51.366;12.348;2023-02-01T01:55:19;14.73;;;3.23;;
18190;SDS011;47004;51.366;12.348;2023-02-01T01:57:24;8.77;;;3.10;;
18190;SDS011;47004;51.366;12.348;2023-02-01T01:59:30;10.50;;;3.40;;
18190;SDS011;47004;51.366;12.348;2023-02-01T02:01:33;14.47;;;3.23;;
18190;SDS011;47004;51.366;12.348;2023-02-01T02:03:37;18.83;;;3.03;;
18190;SDS011;47004;51.366;12.348;2023-02-01T02:05:41;17.20;;;3.97;;
18190;SDS011;47004;51.366;12.348;2023-02-01T02:07:45;16.23;;;3.27;;
18190;SDS011;47004;51.366;12.348;2023-02-01T02:09:49;12.80;;;3.30;;
18190;SDS011;47004;51.366;12.348;2023-02-01T02:11:53;10.33;;;2.70;;
18190;SDS011;47004;51.366;12.348;2023-02-01T02:13:55;8.63;;;3.20;;
18190;SDS011;47004;51.366;12.348;2023-02-01T02:16:05;13.43;;;3.00;;
18190;SDS011;47004;51.366;12.348;2023-02-01T02:18:19;15.27;;;3.10;;
18190;SDS011;47004;51.366;12.348;2023-02-01T02:20:31;11.77;;;3.27;;
18190;SDS011;47004;51.366;12.348;2023-02-01T02:25:50;14.57;;;3.27;;
18190;SDS011;47004;51.366;12.348;2023-02-01T02:28:05;13.13;;;3.23;;
18190;SDS011;47004;51.366;12.348;2023-02-01T02:30:34;17.73;;;3.17;;
18190;SDS011;47004;51.366;12.348;2023-02-01T02:35:48;14.03;;;3.73;;
18190;SDS011;47004;51.366;12.348;2023-02-01T02:38:00;10.73;;;2.60;;
18190;SDS011;47004;51.366;12.348;2023-02-01T02:40:11;13.73;;;3.13;;
18190;SDS011;47004;51.366;12.348;2023-02-01T02:42:22;15.53;;;3.20;;
18190;SDS011;47004;51.366;12.348;2023-02-01T02:44:48;16.00;;;3.07;;
18190;SDS011;47004;51.366;12.348;2023-02-01T02:47:26;10.67;;;2.93;;
18190;SDS011;47004;51.366;12.348;2023-02-01T02:49:35;16.90;;;3.00;;
18190;SDS011;47004;51.366;12.348;2023-02-01T02:51:45;14.93;;;3.30;;
18190;SDS011;47004;51.366;12.348;2023-02-01T02:54:23;13.47;;;3.73;;
18190;SDS011;47004;51.366;12.348;2023-02-01T02:56:45;13.57;;;3.10;;
18190;SDS011;47004;51.366;12.348;2023-02-01T02:59:06;22.10;;;3.43;;
18190;SDS011;47004;51.366;12.348;2023-02-01T03:01:27;10.07;;;3.50;;
18190;SDS011;47004;51.366;12.348;2023-02-01T03:03:47;13.27;;;2.80;;
18190;SDS011;47004;51.366;12.348;2023-02-01T03:06:11;11.23;;;2.60;;
18190;SDS011;47004;51.366;12.348;2023-02-01T03:08:18;11.93;;;3.27;;
18190;SDS011;47004;51.366;12.348;2023-02-01T03:10:24;15.70;;;2.53;;
18190;SDS011;47004;51.366;12.348;2023-02-01T03:12:30;14.10;;;3.20;;
18190;SDS011;47004;51.366;12.348;2023-02-01T03:14:56;10.90;;;3.13;;
18190;SDS011;47004;51.366;12.348;2023-02-01T03:17:04;10.20;;;2.40;;
18190;SDS011;47004;51.366;12.348;2023-02-01T03:19:13;16.27;;;3.00;;
18190;SDS011;47004;51.366;12.348;2023-02-01T03:21:18;14.03;;;2.67;;
18190;SDS011;47004;51.366;12.348;2023-02-01T03:23:27;14.97;;;2.50;;
18190;SDS011;47004;51.366;12.348;2023-02-01T03:25:33;11.97;;;3.23;;
18190;SDS011;47004;51.366;12.348;2023-02-01T03:27:37;9.77;;;2.80;;
18190;SDS011;47004;51.366;12.348;2023-02-01T03:29:46;14.60;;;3.07;;
18190;SDS011;47004;51.366;12.348;2023-02-01T03:31:52;11.53;;;2.67;;
18190;SDS011;47004;51.366;12.348;2023-02-01T03:33:54;13.97;;;3.17;;
18190;SDS011;47004;51.366;12.348;2023-02-01T03:38:20;12.03;;;2.90;;
18190;SDS011;47004;51.366;12.348;2023-02-01T03:40:25;15.93;;;3.50;;
18190;SDS011;47004;51.366;12.348;2023-02-01T03:42:33;10.20;;;2.80;;
18190;SDS011;47004;51.366;12.348;2023-02-01T03:44:38;14.93;;;2.50;;
18190;SDS011;47004;51.366;12.348;2023-02-01T03:46:46;13.40;;;3.30;;
18190;SDS011;47004;51.366;12.348;2023-02-01T03:48:52;14.73;;;3.30;;
18190;SDS011;47004;51.366;12.348;2023-02-01T03:50:56;15.63;;;3.77;;
18190;SDS011;47004;51.366;12.348;2023-02-01T03:53:02;15.20;;;3.07;;
18190;SDS011;47004;51.366;12.348;2023-02-01T03:55:06;13.03;;;2.83;;
18190;SDS011;47004;51.366;12.348;2023-02-01T03:57:11;17.27;;;3.97;;
18190;SDS011;47004;51.366;12.348;2023-02-01T03:59:15;11.63;;;2.70;;
18190;SDS011;47004;51.366;12.348;2023-02-01T04:01:17;15.17;;;2.77;;
18190;SDS011;47004;51.366;12.348;2023-02-01T04:03:19;10.70;;;2.40;;
18190;SDS011;47004;51.366;12.348;2023-02-01T04:05:22;21.43;;;2.87;;
18190;SDS011;47004;51.366;12.348;2023-02-01T04:07:24;11.00;;;2.53;;
18190;SDS011;47004;51.366;12.348;2023-02-01T04:09:26;12.03;;;3.00;;
18190;SDS011;47004;51.366;12.348;2023-02-01T04:11:28;20.60;;;2.83;;
18190;SDS011;47004;51.366;12.348;2023-02-01T04:13:31;15.20;;;2.80;;
18190;SDS011;47004;51.366;12.348;2023-02-01T04:15:33;15.50;;;3.13;;
18190;SDS011;47004;51.366;12.348;2023-02-01T04:17:35;19.40;;;3.30;;
18190;SDS011;47004;51.366;12.348;2023-02-01T04:19:37;14.87;;;2.93;;
18190;SDS011;47004;51.366;12.348;2023-02-01T04:21:39;10.17;;;2.37;;
18190;SDS011;47004;51.366;12.348;2023-02-01T04:23:41;16.13;;;2.90;;
18190;SDS011;47004;51.366;12.348;2023-02-01T04:25:43;9.70;;;2.93;;
18190;SDS011;47004;51.366;12.348;2023-02-01T04:27:45;20.47;;;3.27;;
18190;SDS011;47004;51.366;12.348;2023-02-01T04:29:48;14.13;;;3.47;;
18190;SDS011;47004;51.366;12.348;2023-02-01T04:31:51;16.37;;;2.73;;
18190;SDS011;47004;51.366;12.348;2023-02-01T04:33:53;11.53;;;2.63;;
18190;SDS011;47004;51.366;12.348;2023-02-01T04:35:57;16.57;;;3.13;;
18190;SDS011;47004;51.366;12.348;2023-02-01T04:37:59;12.03;;;2.80;;
18190;SDS011;47004;51.366;12.348;2023-02-01T04:40:01;13.70;;;3.03;;
18190;SDS011;47004;51.366;12.348;2023-02-01T04:42:06;11.70;;;2.70;;
18190;SDS011;47004;51.366;12.348;2023-02-01T04:44:09;12.30;;;2.83;;
18190;SDS011;47004;51.366;12.348;2023-02-01T04:46:16;11.93;;;2.40;;
18190;SDS011;47004;51.366;12.348;2023-02-01T04:48:18;13.97;;;2.87;;
18190;SDS011;47004;51.366;12.348;2023-02-01T04:50:23;16.07;;;2.57;;
18190;SDS011;47004;51.366;12.348;2023-02-01T04:52:25;14.13;;;2.90;;
18190;SDS011;47004;51.366;12.348;2023-02-01T04:54:28;12.17;;;2.27;;
18190;SDS011;47004;51.366;12.348;2023-02-01T04:56:30;11.57;;;2.47;;
18190;SDS011;47004;51.366;12.348;2023-02-01T04:58:32;18.10;;;2.77;;
18190;SDS011;47004;51.366;12.348;2023-02-01T05:00:34;17.13;;;3.23;;
18190;SDS011;47004;51.366;12.348;2023-02-01T05:02:37;10.77;;;2.57;;
18190;SDS011;47004;51.366;12.348;2023-02-01T05:04:39;14.33;;;2.50;;
18190;SDS011;47004;51.366;12.348;2023-02-01T05:06:41;16.43;;;2.57;;
18190;SDS011;47004;51.366;12.348;2023-02-01T05:08:43;13.97;;;2.53;;
18190;SDS011;47004;51.366;12.348;2023-02-01T05:10:45;17.90;;;3.20;;
18190;SDS011;47004;51.366;12.348;2023-02-01T05:12:47;16.33;;;2.57;;
18190;SDS011;47004;51.366;12.348;2023-02-01T05:15:07;18.53;;;3.47;;
18190;SDS011;47004;51.366;12.348;2023-02-01T05:17:09;21.97;;;3.60;;
18190;SDS011;47004;51.366;12.348;2023-02-01T05:19:12;14.97;;;4.13;;
18190;SDS011;47004;51.366;12.348;2023-02-01T05:21:16;14.80;;;3.73;;
18190;SDS011;47004;51.366;12.348;2023-02-01T05:23:18;14.53;;;3.40;;
18190;SDS011;47004;51.366;12.348;2023-02-01T05:25:20;20.23;;;3.23;;
18190;SDS011;47004;51.366;12.348;2023-02-01T05:27:22;14.37;;;2.70;;
18190;SDS011;47004;51.366;12.348;2023-02-01T05:29:24;12.83;;;3.10;;
18190;SDS011;47004;51.366;12.348;2023-02-01T05:31:26;10.07;;;3.03;;
18190;SDS011;47004;51.366;12.348;2023-02-01T05:33:28;14.50;;;3.40;;
18190;SDS011;47004;51.366;12.348;2023-02-01T05:35:31;14.53;;;3.10;;
18190;SDS011;47004;51.366;12.348;2023-02-01T05:37:33;12.03;;;3.03;;
18190;SDS011;47004;51.366;12.348;2023-02-01T05:39:35;14.43;;;3.43;;
18190;SDS011;47004;51.366;12.348;2023-02-01T05:41:37;15.33;;;2.90;;
18190;SDS011;47004;51.366;12.348;2023-02-01T05:43:39;13.40;;;3.57;;
18190;SDS011;47004;51.366;12.348;2023-02-01T05:45:41;12.63;;;3.33;;
18190;SDS011;47004;51.366;12.348;2023-02-01T05:47:43;12.97;;;3.00;;
18190;SDS011;47004;51.366;12.348;2023-02-01T05:49:45;14.77;;;3.40;;
18190;SDS011;47004;51.366;12.348;2023-02-01T05:51:48;14.30;;;3.60;;
18190;SDS011;47004;51.366;12.348;2023-02-01T05:53:53;15.57;;;3.70;;
18190;SDS011;47004;51.366;12.348;2023-02-01T05:55:55;12.43;;;2.80;;
18190;SDS011;47004;51.366;12.348;2023-02-01T05:57:57;12.30;;;3.43;;
18190;SDS011;47004;51.366;12.348;2023-02-01T05:59:59;17.80;;;2.80;;
18190;SDS011;47004;51.366;12.348;2023-02-01T06:02:00;12.13;;;3.77;;
18190;SDS011;47004;51.366;12.348;2023-02-01T06:04:02;18.87;;;2.70;;
18190;SDS011;47004;51.366;12.348;2023-02-01T06:06:05;11.40;;;3.20;;
18190;SDS011;47004;51.366;12.348;2023-02-01T06:08:08;16.63;;;3.30;;
18190;SDS011;47004;51.366;12.348;2023-02-01T06:10:10;15.07;;;3.23;;
18190;SDS011;47004;51.366;12.348;2023-02-01T06:12:12;14.13;;;2.90;;
18190;SDS011;47004;51.366;12.348;2023-02-01T06:14:14;14.00;;;2.30;;
18190;SDS011;47004;51.366;12.348;2023-02-01T06:16:16;13.57;;;3.17;;
18190;SDS011;47004;51.366;12.348;2023-02-01T06:18:17;5.23;;;2.30;;
18190;SDS011;47004;51.366;12.348;2023-02-01T06:20:20;11.07;;;2.67;;
18190;SDS011;47004;51.366;12.348;2023-02-01T06:22:22;19.10;;;3.57;;
18190;SDS011;47004;51.366;12.348;2023-02-01T06:24:25;13.23;;;2.90;;
18190;SDS011;47004;51.366;12.348;2023-02-01T06:26:27;9.33;;;3.03;;
18190;SDS011;47004;51.366;12.348;2023-02-01T06:28:29;19.77;;;3.23;;
18190;SDS011;47004;51.366;12.348;2023-02-01T06:30:32;14.40;;;3.00;;
18190;SDS011;47004;51.366;12.348;2023-02-01T06:32:34;14.17;;;3.30;;
18190;SDS011;47004;51.366;12.348;2023-02-01T06:34:36;11.97;;;3.10;;
18190;SDS011;47004;51.366;12.348;2023-02-01T06:36:39;14.87;;;2.90;;
18190;SDS011;47004;51.366;12.348;2023-02-01T06:38:41;13.67;;;2.90;;
18190;SDS011;47004;51.366;12.348;2023-02-01T06:40:44;7.93;;;2.60;;
18190;SDS011;47004;51.366;12.348;2023-02-01T06:42:53;13.10;;;3.20;;
18190;SDS011;47004;51.366;12.348;2023-02-01T06:44:55;8.60;;;2.30;;
18190;SDS011;47004;51.366;12.348;2023-02-01T06:46:57;13.13;;;2.80;;
18190;SDS011;47004;51.366;12.348;2023-02-01T06:48:59;14.27;;;3.20;;
18190;SDS011;47004;51.366;12.348;2023-02-01T06:51:02;10.77;;;2.87;;
18190;SDS011;47004;51.366;12.348;2023-02-01T06:53:04;15.73;;;2.70;;
18190;SDS011;47004;51.366;12.348;2023-02-01T06:55:06;12.13;;;2.90;;
18190;SDS011;47004;51.366;12.348;2023-02-01T06:57:10;11.43;;;3.20;;
18190;SDS011;47004;51.366;12.348;2023-02-01T06:59:12;9.63;;;3.07;;
18190;SDS011;47004;51.366;12.348;2023-02-01T07:01:14;14.87;;;3.07;;
18190;SDS011;47004;51.366;12.348;2023-02-01T07:03:16;9.63;;;3.43;;
18190;SDS011;47004;51.366;12.348;2023-02-01T07:05:18;12.73;;;4.20;;
18190;SDS011;47004;51.366;12.348;2023-02-01T07:07:20;11.60;;;3.37;;
18190;SDS011;47004;51.366;12.348;2023-02-01T07:09:22;9.13;;;2.90;;
18190;SDS011;47004;51.366;12.348;2023-02-01T07:11:24;14.80;;;3.00;;
18190;SDS011;47004;51.366;12.348;2023-02-01T07:13:30;10.10;;;3.07;;
18190;SDS011;47004;51.366;12.348;2023-02-01T07:15:32;11.40;;;2.87;;
18190;SDS011;47004;51.366;12.348;2023-02-01T07:17:34;11.13;;;2.87;;
18190;SDS011;47004;51.366;12.348;2023-02-01T07:19:36;11.30;;;3.43;;
18190;SDS011;47004;51.366;12.348;2023-02-01T07:21:38;18.17;;;3.10;;
18190;SDS011;47004;51.366;12.348;2023-02-01T07:23:40;13.67;;;2.80;;
18190;SDS011;47004;51.366;12.348;2023-02-01T07:25:42;10.47;;;3.07;;
18190;SDS011;47004;51.366;12.348;2023-02-01T07:27:44;9.87;;;2.93;;
18190;SDS011;47004;51.366;12.348;2023-02-01T07:29:47;9.70;;;3.67;;
18190;SDS011;47004;51.366;12.348;2023-02-01T07:31:49;9.23;;;2.70;;
18190;SDS011;47004;51.366;12.348;2023-02-01T07:33:51;7.33;;;2.30;;
18190;SDS011;47004;51.366;12.348;2023-02-01T07:35:55;11.47;;;2.97;;
18190;SDS011;47004;51.366;12.348;2023-02-01T07:37:56;16.87;;;3.20;;
18190;SDS011;47004;51.366;12.348;2023-02-01T07:39:59;13.37;;;2.97;;
18190;SDS011;47004;51.366;12.348;2023-02-01T07:42:01;10.37;;;2.97;;
18190;SDS011;47004;51.366;12.348;2023-02-01T07:44:03;15.67;;;3.50;;
18190;SDS011;47004;51.366;12.348;2023-02-01T07:46:06;12.57;;;2.90;;
18190;SDS011;47004;51.366;12.348;2023-02-01T07:48:09;19.60;;;3.37;;
18190;SDS011;47004;51.366;12.348;2023-02-01T07:50:10;11.50;;;2.67;;
18190;SDS011;47004;51.366;12.348;2023-02-01T07:52:12;13.20;;;3.90;;
18190;SDS011;47004;51.366;12.348;2023-02-01T07:54:16;14.00;;;3.70;;
18190;SDS011;47004;51.366;12.348;2023-02-01T07:56:19;13.27;;;3.23;;
18190;SDS011;47004;51.366;12.348;2023-02-01T07:58:23;9.63;;;2.77;;
18190;SDS011;47004;51.366;12.348;2023-02-01T08:00:25;10.40;;;2.67;;
18190;SDS011;47004;51.366;12.348;2023-02-01T08:02:46;10.67;;;2.60;;
18190;SDS011;47004;51.366;12.348;2023-02-01T08:04:48;11.00;;;2.80;;
18190;SDS011;47004;51.366;12.348;2023-02-01T08:06:50;12.70;;;2.87;;
18190;SDS011;47004;51.366;12.348;2023-02-01T08:08:52;11.77;;;2.80;;
18190;SDS011;47004;51.366;12.348;2023-02-01T08:10:57;10.47;;;2.70;;
18190;SDS011;47004;51.366;12.348;2023-02-01T08:12:59;14.23;;;2.63;;
18190;SDS011;47004;51.366;12.348;2023-02-01T08:15:01;13.50;;;3.10;;
18190;SDS011;47004;51.366;12.348;2023-02-01T08:17:03;11.87;;;2.97;;
18190;SDS011;47004;51.366;12.348;2023-02-01T08:19:07;13.17;;;3.00;;
18190;SDS011;47004;51.366;12.348;2023-02-01T08:21:10;11.83;;;3.10;;
18190;SDS011;47004;51.366;12.348;2023-02-01T08:23:13;14.57;;;2.90;;
18190;SDS011;47004;51.366;12.348;2023-02-01T08:25:15;13.37;;;2.77;;
18190;SDS011;47004;51.366;12.348;2023-02-01T08:27:17;11.73;;;2.70;;
18190;SDS011;47004;51.366;12.348;2023-02-01T08:29:19;13.37;;;2.43;;
18190;SDS011;47004;51.366;12.348;2023-02-01T08:31:21;15.03;;;2.57;;
18190;SDS011;47004;51.366;12.348;2023-02-01T08:33:24;9.60;;;2.57;;
18190;SDS011;47004;51.366;12.348;2023-02-01T08:35:27;16.47;;;2.87;;
18190;SDS011;47004;51.366;12.348;2023-02-01T08:37:29;14.13;;;2.90;;
18190;SDS011;47004;51.366;12.348;2023-02-01T08:39:31;14.93;;;2.63;;
18190;SDS011;47004;51.366;12.348;2023-02-01T08:41:33;8.17;;;3.07;;
18190;SDS011;47004;51.366;12.348;2023-02-01T08:43:36;12.67;;;3.20;;
18190;SDS011;47004;51.366;12.348;2023-02-01T08:45:39;10.37;;;2.60;;
18190;SDS011;47004;51.366;12.348;2023-02-01T08:47:41;17.37;;;3.50;;
18190;SDS011;47004;51.366;12.348;2023-02-01T08:49:43;9.33;;;2.90;;
18190;SDS011;47004;51.366;12.348;2023-02-01T08:51:46;12.50;;;3.33;;
18190;SDS011;47004;51.366;12.348;2023-02-01T08:53:48;10.93;;;2.90;;
18190;SDS011;47004;51.366;12.348;2023-02-01T08:55:50;12.07;;;3.87;;
18190;SDS011;47004;51.366;12.348;2023-02-01T08:57:52;10.90;;;3.37;;
18190;SDS011;47004;51.366;12.348;2023-02-01T08:59:54;11.93;;;3.70;;
18190;SDS011;47004;51.366;12.348;2023-02-01T09:01:56;19.90;;;4.20;;
18190;SDS011;47004;51.366;12.348;2023-02-01T09:03:57;13.07;;;3.87;;
18190;SDS011;47004;51.366;12.348;2023-02-01T09:06:03;12.40;;;3.80;;
18190;SDS011;47004;51.366;12.348;2023-02-01T09:08:07;15.57;;;4.40;;
18190;SDS011;47004;51.366;12.348;2023-02-01T09:10:09;13.77;;;3.87;;
18190;SDS011;47004;51.366;12.348;2023-02-01T09:12:12;13.13;;;3.87;;
18190;SDS011;47004;51.366;12.348;2023-02-01T09:14:13;13.07;;;4.03;;
18190;SDS011;47004;51.366;12.348;2023-02-01T09:16:15;15.23;;;3.83;;
18190;SDS011;47004;51.366;12.348;2023-02-01T09:18:17;18.07;;;4.33;;
18190;SDS011;47004;51.366;12.348;2023-02-01T09:20:19;30.07;;;5.50;;
18190;SDS011;47004;51.366;12.348;2023-02-01T09:22:24;19.30;;;4.80;;
18190;SDS011;47004;51.366;12.348;2023-02-01T09:24:27;19.77;;;5.33;;
18190;SDS011;47004;51.366;12.348;2023-02-01T09:26:29;16.67;;;5.00;;
18190;SDS011;47004;51.366;12.348;2023-02-01T09:28:31;19.50;;;4.90;;
18190;SDS011;47004;51.366;12.348;2023-02-01T09:30:33;16.07;;;4.73;;
18190;SDS011;47004;51.366;12.348;2023-02-01T09:32:36;21.10;;;5.30;;
18190;SDS011;47004;51.366;12.348;2023-02-01T09:34:38;21.97;;;5.17;;
18190;SDS011;47004;51.366;12.348;2023-02-01T09:36:40;25.90;;;5.20;;
18190;SDS011;47004;51.366;12.348;2023-02-01T09:38:42;17.97;;;5.20;;
18190;SDS011;47004;51.366;12.348;2023-02-01T09:40:46;16.70;;;4.93;;
18190;SDS011;47004;51.366;12.348;2023-02-01T09:45:17;21.50;;;5.00;;
18190;SDS011;47004;51.366;12.348;2023-02-01T09:47:23;21.90;;;4.63;;
18190;SDS011;47004;51.366;12.348;2023-02-01T09:49:27;22.63;;;5.10;;
18190;SDS011;47004;51.366;12.348;2023-02-01T09:51:32;18.50;;;4.63;;
18190;SDS011;47004;51.366;12.348;2023-02-01T09:53:38;18.70;;;4.90;;
18190;SDS011;47004;51.366;12.348;2023-02-01T09:55:45;16.30;;;4.70;;
18190;SDS011;47004;51.366;12.348;2023-02-01T09:57:52;18.07;;;4.90;;
18190;SDS011;47004;51.366;12.348;2023-02-01T09:59:57;17.67;;;5.00;;
18190;SDS011;47004;51.366;12.348;2023-02-01T10:02:10;21.60;;;4.90;;
18190;SDS011;47004;51.366;12.348;2023-02-01T10:04:15;28.00;;;5.33;;
18190;SDS011;47004;51.366;12.348;2023-02-01T10:06:25;10.70;;;4.50;;
18190;SDS011;47004;51.366;12.348;2023-02-01T10:08:42;15.70;;;4.23;;
18190;SDS011;47004;51.366;12.348;2023-02-01T10:11:17;16.03;;;5.00;;
18190;SDS011;47004;51.366;12.348;2023-02-01T10:13:31;15.40;;;4.43;;
18190;SDS011;47004;51.366;12.348;2023-02-01T10:15:46;19.13;;;4.63;;
18190;SDS011;47004;51.366;12.348;2023-02-01T10:18:23;13.20;;;4.50;;
18190;SDS011;47004;51.366;12.348;2023-02-01T10:20:39;16.97;;;4.73;;
18190;SDS011;47004;51.366;12.348;2023-02-01T10:22:55;10.77;;;4.43;;
18190;SDS011;47004;51.366;12.348;2023-02-01T10:25:05;19.70;;;4.70;;
18190;SDS011;47004;51.366;12.348;2023-02-01T10:27:16;12.73;;;4.40;;
18190;SDS011;47004;51.366;12.348;2023-02-01T10:29:21;24.17;;;4.83;;
18190;SDS011;47004;51.366;12.348;2023-02-01T10:31:28;18.17;;;4.47;;
18190;SDS011;47004;51.366;12.348;2023-02-01T10:33:33;20.23;;;5.50;;
18190;SDS011;47004;51.366;12.348;2023-02-01T10:35:37;18.43;;;4.40;;
18190;SDS011;47004;51.366;12.348;2023-02-01T10:37:41;18.40;;;4.23;;
18190;SDS011;47004;51.366;12.348;2023-02-01T10:39:45;17.27;;;4.43;;
18190;SDS011;47004;51.366;12.348;2023-02-01T10:41:48;17.63;;;3.77;;
18190;SDS011;47004;51.366;12.348;2023-02-01T10:43:53;11.73;;;3.80;;
18190;SDS011;47004;51.366;12.348;2023-02-01T10:45:56;15.27;;;3.33;;
18190;SDS011;47004;51.366;12.348;2023-02-01T10:47:59;12.23;;;3.10;;
18190;SDS011;47004;51.366;12.348;2023-02-01T10:50:08;13.80;;;2.53;;
18190;SDS011;47004;51.366;12.348;2023-02-01T10:52:18;11.30;;;2.50;;
18190;SDS011;47004;51.366;12.348;2023-02-01T10:54:31;16.57;;;2.23;;
18190;SDS011;47004;51.366;12.348;2023-02-01T10:56:36;11.97;;;2.30;;
18190;SDS011;47004;51.366;12.348;2023-02-01T10:58:43;8.57;;;2.00;;
18190;SDS011;47004;51.366;12.348;2023-02-01T11:00:48;14.77;;;2.47;;
18190;SDS011;47004;51.366;12.348;2023-02-01T11:02:54;14.13;;;2.77;;
18190;SDS011;47004;51.366;12.348;2023-02-01T11:05:00;9.03;;;2.17;;
18190;SDS011;47004;51.366;12.348;2023-02-01T11:07:06;11.70;;;2.63;;
18190;SDS011;47004;51.366;12.348;2023-02-01T11:09:18;10.07;;;2.40;;
18190;SDS011;47004;51.366;12.348;2023-02-01T11:11:24;12.43;;;2.93;;
18190;SDS011;47004;51.366;12.348;2023-02-01T11:13:31;7.53;;;2.10;;
18190;SDS011;47004;51.366;12.348;2023-02-01T11:15:37;13.20;;;2.20;;
18190;SDS011;47004;51.366;12.348;2023-02-01T11:17:45;10.00;;;2.00;;
18190;SDS011;47004;51.366;12.348;2023-02-01T11:19:56;9.57;;;1.80;;
18190;SDS011;47004;51.366;12.348;2023-02-01T11:21:59;9.33;;;2.23;;
18190;SDS011;47004;51.366;12.348;2023-02-01T11:24:02;7.20;;;2.00;;
18190;SDS011;47004;51.366;12.348;2023-02-01T11:26:07;9.63;;;2.17;;
18190;SDS011;47004;51.366;12.348;2023-02-01T11:28:14;13.87;;;2.43;;
18190;SDS011;47004;51.366;12.348;2023-02-01T11:30:17;10.43;;;2.90;;
18190;SDS011;47004;51.366;12.348;2023-02-01T11:32:32;10.33;;;1.97;;
18190;SDS011;47004;51.366;12.348;2023-02-01T11:34:36;13.90;;;2.40;;
18190;SDS011;47004;51.366;12.348;2023-02-01T11:36:40;11.40;;;2.30;;
18190;SDS011;47004;51.366;12.348;2023-02-01T11:38:45;10.40;;;2.13;;
18190;SDS011;47004;51.366;12.348;2023-02-01T11:40:52;8.70;;;2.27;;
18190;SDS011;47004;51.366;12.348;2023-02-01T11:42:54;8.37;;;2.50;;
18190;SDS011;47004;51.366;12.348;2023-02-01T11:47:22;11.80;;;2.20;;
18190;SDS011;47004;51.366;12.348;2023-02-01T11:49:26;11.57;;;2.60;;
18190;SDS011;47004;51.366;12.348;2023-02-01T11:51:40;18.27;;;2.63;;
18190;SDS011;47004;51.366;12.348;2023-02-01T11:53:56;12.00;;;2.00;;
18190;SDS011;47004;51.366;12.348;2023-02-01T11:56:09;10.17;;;2.27;;
18190;SDS011;47004;51.366;12.348;2023-02-01T11:58:31;8.27;;;2.37;;
18190;SDS011;47004;51.366;12.348;2023-02-01T12:01:02;16.67;;;3.03;;
18190;SDS011;47004;51.366;12.348;2023-02-01T12:05:46;10.60;;;2.07;;
18190;SDS011;47004;51.366;12.348;2023-02-01T12:08:00;6.73;;;2.43;;
18190;SDS011;47004;51.366;12.348;2023-02-01T12:10:26;15.07;;;2.43;;
18190;SDS011;47004;51.366;12.348;2023-02-01T12:12:39;10.77;;;2.40;;
18190;SDS011;47004;51.366;12.348;2023-02-01T12:14:56;9.93;;;2.20;;
18190;SDS011;47004;51.366;12.348;2023-02-01T12:17:15;8.97;;;1.93;;
18190;SDS011;47004;51.366;12.348;2023-02-01T12:19:38;9.10;;;2.60;;
18190;SDS011;47004;51.366;12.348;2023-02-01T12:21:59;12.63;;;2.67;;
18190;SDS011;47004;51.366;12.348;2023-02-01T12:24:30;12.57;;;2.50;;
18190;SDS011;47004;51.366;12.348;2023-02-01T12:26:46;12.73;;;2.30;;
18190;SDS011;47004;51.366;12.348;2023-02-01T12:29:04;12.73;;;2.53;;
18190;SDS011;47004;51.366;12.348;2023-02-01T12:31:26;12.37;;;2.50;;
18190;SDS011;47004;51.366;12.348;2023-02-01T12:33:49;11.23;;;2.33;;
18190;SDS011;47004;51.366;12.348;2023-02-01T12:36:07;15.40;;;2.77;;